Time;durP1;ratioP1;P1;durP2;ratioP2;P2;SDS_P1;SDS_P2;PMS_P1;PMS_P2;Temp;Humidity;BMP_temperature;BMP_pressure;BME280_temperature;BME280_humidity;BME280_pressure;Samples;Min_cycle;Max_cycle;Signal;HPM_P1;HPM_P2
2022/04/24 09:18:15;;;;;;;14.43;1.95;;;18.40;57.10;;;;;;4882318;29;20426;-72
2022/04/24 09:20:41;;;;;;;6.40;2.30;;;18.30;57.40;;;;;;4882436;29;20052;-72
2022/04/24 09:23:07;;;;;;;4.65;1.75;;;18.20;56.70;;;;;;4876404;29;20459;-72
2022/04/24 09:25:40;;;;;;;4.25;1.73;;;18.20;56.30;;;;;;4883874;29;20077;-72
2022/04/24 09:28:06;;;;;;;5.43;1.90;;;18.20;56.90;;;;;;4870163;29;20057;-75
2022/04/24 09:30:35;;;;;;;9.73;2.30;;;18.20;56.60;;;;;;4901055;29;20184;-72
2022/04/24 09:33:01;;;;;;;9.98;1.98;;;18.10;57.20;;;;;;4902284;29;20056;-75
2022/04/24 09:35:28;;;;;;;4.85;1.70;;;18.10;57.60;;;;;;4902371;29;20481;-75
2022/04/24 09:38:06;;;;;;;11.63;1.95;;;18.10;57.80;;;;;;4879436;29;20080;-73
2022/04/24 09:40:43;;;;;;;10.35;2.08;;;18.10;57.40;;;;;;4866031;29;20050;-75
2022/04/24 09:43:10;;;;;;;9.20;1.88;;;18.10;56.90;;;;;;4884348;29;20049;-76
2022/04/24 09:45:37;;;;;;;7.07;1.70;;;18.00;57.70;;;;;;4884101;29;20358;-74
2022/04/24 09:48:17;;;;;;;5.00;1.25;;;18.10;58.90;;;;;;4883378;29;20069;-73
2022/04/24 09:50:43;;;;;;;7.70;1.70;;;18.10;57.70;;;;;;4883474;29;20063;-74
2022/04/24 09:53:14;;;;;;;8.70;1.98;;;18.00;58.40;;;;;;4883553;29;20453;-74
2022/04/24 09:55:43;;;;;;;10.23;1.90;;;18.00;58.10;;;;;;4884007;29;20060;-73
2022/04/24 09:58:09;;;;;;;11.20;1.95;;;18.00;58.00;;;;;;4883671;29;20049;-74
2022/04/24 10:00:36;;;;;;;16.50;2.42;;;18.10;59.40;;;;;;4882779;29;20462;-75
2022/04/24 10:03:02;;;;;;;9.82;2.55;;;18.20;59.80;;;;;;4882808;29;20049;-72
2022/04/24 10:05:32;;;;;;;10.25;2.50;;;18.30;61.10;;;;;;4884227;29;20096;-75
2022/04/24 10:08:01;;;;;;;12.02;2.42;;;18.30;61.80;;;;;;4895555;29;20056;-75
2022/04/24 10:10:27;;;;;;;10.80;2.03;;;18.40;61.70;;;;;;4900836;29;20116;-71
2022/04/24 10:12:54;;;;;;;6.85;1.52;;;18.40;61.40;;;;;;4883066;29;20053;-75
2022/04/24 10:15:22;;;;;;;10.68;2.20;;;18.40;60.30;;;;;;4882736;29;20347;-75
2022/04/24 10:18:22;;;;;;;10.85;2.15;;;18.40;59.90;;;;;;4892896;29;20137;-74
2022/04/24 10:21:06;;;;;;;12.98;2.53;;;18.50;59.60;;;;;;4901259;29;20088;-75
2022/04/24 10:23:36;;;;;;;6.63;1.48;;;18.40;60.10;;;;;;4911125;29;20449;-76
2022/04/24 10:26:19;;;;;;;7.13;1.50;;;18.40;60.40;;;;;;4901366;29;20139;-69
2022/04/24 10:28:48;;;;;;;4.38;1.40;;;18.50;60.90;;;;;;4901096;29;20053;-75
2022/04/24 10:31:16;;;;;;;7.63;1.50;;;18.60;60.90;;;;;;4898708;29;20048;-76
2022/04/24 10:33:54;;;;;;;9.90;1.48;;;18.60;61.60;;;;;;4900574;29;20195;-73
2022/04/24 10:36:21;;;;;;;10.50;2.13;;;18.50;61.20;;;;;;4901297;29;20064;-76
2022/04/24 10:38:52;;;;;;;8.82;1.45;;;18.60;60.50;;;;;;4900652;29;20372;-76
2022/04/24 10:41:23;;;;;;;7.32;1.92;;;18.60;59.90;;;;;;4901572;29;20045;-74
2022/04/24 10:44:12;;;;;;;10.38;1.60;;;18.60;59.80;;;;;;4900152;29;20196;-76
2022/04/24 10:46:40;;;;;;;7.78;1.58;;;18.60;59.10;;;;;;4902900;29;20052;-75
2022/04/24 10:49:10;;;;;;;9.35;1.70;;;18.50;59.30;;;;;;4919842;29;20047;-77
2022/04/24 10:51:41;;;;;;;6.50;1.65;;;18.50;59.40;;;;;;4915768;29;20127;-76
2022/04/24 10:54:13;;;;;;;7.78;1.77;;;18.50;59.60;;;;;;4883779;29;20119;-78
2022/04/24 10:56:45;;;;;;;9.23;1.48;;;18.50;59.60;;;;;;4899705;29;20084;-77
2022/04/24 10:59:16;;;;;;;7.18;1.20;;;18.50;59.20;;;;;;4915254;29;20048;-77
2022/04/24 11:01:52;;;;;;;8.52;1.63;;;18.50;59.00;;;;;;4899737;29;20461;-78
2022/04/24 11:04:20;;;;;;;6.07;1.35;;;18.60;59.40;;;;;;4900442;29;20417;-79
2022/04/24 11:07:00;;;;;;;6.93;1.38;;;18.50;59.30;;;;;;4886189;29;20087;-80
2022/04/24 11:09:31;;;;;;;9.27;1.25;;;18.50;59.50;;;;;;4902844;29;20056;-77
2022/04/24 11:11:58;;;;;;;6.68;1.83;;;18.50;59.80;;;;;;4919105;29;20056;-76
2022/04/24 11:14:28;;;;;;;5.68;1.35;;;18.60;59.70;;;;;;4919824;29;20134;-75
2022/04/24 11:17:05;;;;;;;8.02;1.58;;;18.50;59.70;;;;;;4888576;29;20072;-77
2022/04/24 11:19:37;;;;;;;7.72;1.65;;;18.60;59.90;;;;;;4899848;29;20056;-77
2022/04/24 11:22:07;;;;;;;4.03;1.38;;;18.60;59.80;;;;;;4900374;29;20045;-77
2022/04/24 11:24:36;;;;;;;5.68;1.98;;;18.50;59.60;;;;;;4899130;29;20049;-78
2022/04/24 11:27:14;;;;;;;7.20;1.60;;;18.50;59.70;;;;;;4900145;29;20057;-77
2022/04/24 11:29:43;;;;;;;8.90;1.92;;;18.50;59.40;;;;;;4899981;29;20119;-76
2022/04/24 11:32:09;;;;;;;6.65;1.83;;;18.50;59.80;;;;;;4900019;29;20107;-76
2022/04/24 11:34:37;;;;;;;5.82;2.00;;;18.50;59.30;;;;;;4882989;29;20419;-73
2022/04/24 11:37:09;;;;;;;12.23;2.22;;;18.50;59.20;;;;;;4900242;29;20084;-73
2022/04/24 11:39:40;;;;;;;7.57;2.10;;;18.40;59.30;;;;;;4881914;29;20064;-78
2022/04/24 11:42:07;;;;;;;7.18;1.75;;;18.50;59.20;;;;;;4895424;29;20517;-79
2022/04/24 11:50:14;;;;;;;12.10;2.40;;;18.40;58.50;;;;;;4899947;29;20048;-73
2022/04/24 11:52:46;;;;;;;11.63;2.63;;;18.40;58.70;;;;;;4895852;29;20470;-79
2022/04/24 11:55:16;;;;;;;12.70;2.85;;;18.40;59.30;;;;;;4866474;29;20052;-78
2022/04/24 11:57:42;;;;;;;15.57;3.47;;;18.40;59.40;;;;;;4881279;29;20156;-76
2022/04/24 12:00:14;;;;;;;11.18;2.45;;;18.30;59.50;;;;;;4895921;29;20063;-72
2022/04/24 12:02:42;;;;;;;12.23;2.47;;;18.30;59.50;;;;;;4900178;29;20071;-72
2022/04/24 12:05:11;;;;;;;12.77;2.30;;;18.40;60.00;;;;;;4915366;29;20048;-73
2022/04/24 12:07:38;;;;;;;11.73;2.30;;;18.40;60.60;;;;;;4883476;29;20091;-73
2022/04/24 12:10:05;;;;;;;10.68;2.47;;;18.40;60.90;;;;;;4899632;29;20373;-73
2022/04/24 12:12:42;;;;;;;9.23;1.80;;;18.40;61.20;;;;;;4890233;29;20045;-72
2022/04/24 12:15:13;;;;;;;7.88;2.17;;;18.40;61.40;;;;;;4883518;29;20074;-71
2022/04/24 12:17:58;;;;;;;9.75;2.45;;;18.40;59.50;;;;;;4908384;29;20063;-73
2022/04/24 12:20:38;;;;;;;11.18;2.63;;;18.40;59.30;;;;;;4917820;29;20120;-71
2022/04/24 12:23:11;;;;;;;7.90;2.13;;;18.40;60.00;;;;;;4918051;29;20040;-73
2022/04/24 12:25:53;;;;;;;14.05;3.00;;;18.40;60.70;;;;;;4916768;29;20083;-71
2022/04/24 12:28:39;;;;;;;15.38;3.35;;;18.40;61.50;;;;;;4917953;29;20456;-73
2022/04/24 12:31:06;;;;;;;13.20;2.70;;;18.40;63.20;;;;;;4918477;29;20499;-71
2022/04/24 12:33:43;;;;;;;12.35;2.80;;;18.40;63.40;;;;;;4908551;29;20254;-72
2022/04/24 12:36:15;;;;;;;11.52;2.60;;;18.40;63.90;;;;;;4899961;29;20128;-72
2022/04/24 12:39:04;;;;;;;10.85;2.55;;;18.50;64.30;;;;;;4906137;29;20048;-73
2022/04/24 12:41:30;;;;;;;17.30;2.83;;;18.50;64.80;;;;;;4907270;29;20059;-72
2022/04/24 12:43:59;;;;;;;8.40;2.25;;;18.50;65.20;;;;;;4918347;29;20048;-72
2022/04/24 12:46:26;;;;;;;8.05;2.33;;;18.50;64.50;;;;;;4922067;29;20520;-73
2022/04/24 12:48:53;;;;;;;8.55;2.78;;;18.50;64.50;;;;;;4922065;29;20161;-71
2022/04/24 12:51:21;;;;;;;12.13;2.45;;;18.50;64.70;;;;;;4906011;29;20055;-72
2022/04/24 12:53:48;;;;;;;8.23;1.80;;;18.50;64.90;;;;;;4920627;29;20047;-72
2022/04/24 12:56:13;;;;;;;11.32;2.20;;;18.50;64.90;;;;;;4911246;29;20060;-72
2022/04/24 12:58:39;;;;;;;15.75;3.05;;;18.50;64.80;;;;;;4903355;29;20196;-70
2022/04/24 13:01:06;;;;;;;11.48;2.65;;;18.50;64.80;;;;;;4933695;29;20060;-74
2022/04/24 13:03:33;;;;;;;6.35;2.10;;;18.50;65.20;;;;;;4910874;29;20087;-71
2022/04/24 13:05:59;;;;;;;7.85;2.00;;;18.50;65.70;;;;;;4915851;29;20074;-71
2022/04/24 13:08:25;;;;;;;11.45;2.42;;;18.50;66.10;;;;;;4932700;29;20418;-74
2022/04/24 13:10:51;;;;;;;14.70;2.80;;;18.60;66.30;;;;;;4920649;29;20072;-74
2022/04/24 13:13:16;;;;;;;12.85;2.60;;;18.50;64.60;;;;;;4921944;29;20040;-75
2022/04/24 13:15:42;;;;;;;7.93;2.60;;;18.50;64.90;;;;;;4921535;29;20468;-74
2022/04/24 13:18:08;;;;;;;9.80;2.40;;;18.50;64.70;;;;;;4921903;29;20060;-76
2022/04/24 13:20:36;;;;;;;8.65;2.67;;;18.50;64.50;;;;;;4921432;29;20177;-72
2022/04/24 13:23:07;;;;;;;9.68;2.92;;;18.50;65.40;;;;;;4921663;29;20044;-74
2022/04/24 13:25:34;;;;;;;18.02;3.25;;;18.50;64.20;;;;;;4910851;29;20087;-73
2022/04/24 13:28:01;;;;;;;11.68;2.47;;;18.50;64.20;;;;;;4917782;29;20189;-73
2022/04/24 13:30:27;;;;;;;5.82;2.10;;;18.50;63.70;;;;;;4903997;29;20044;-72
2022/04/24 13:32:52;;;;;;;9.77;2.08;;;18.50;63.20;;;;;;4902250;29;20143;-72
2022/04/24 13:35:18;;;;;;;5.75;1.95;;;18.50;63.70;;;;;;4901296;29;20373;-72
2022/04/24 13:40:30;;;;;;;5.20;1.73;;;18.40;63.00;;;;;;4902474;29;20095;-74
2022/04/24 13:42:56;;;;;;;6.07;1.90;;;18.40;63.30;;;;;;4932678;29;20354;-74
2022/04/24 13:45:22;;;;;;;15.77;2.90;;;18.40;63.20;;;;;;4902204;29;20052;-73
2022/04/24 13:47:47;;;;;;;11.07;2.53;;;18.40;62.90;;;;;;4919267;29;20458;-73
2022/04/24 13:50:13;;;;;;;15.73;3.08;;;18.40;63.10;;;;;;4920642;29;20047;-72
2022/04/24 13:52:39;;;;;;;7.80;2.13;;;18.40;63.20;;;;;;4919370;29;20499;-73
2022/04/24 13:55:06;;;;;;;11.57;3.35;;;18.40;63.10;;;;;;4911450;29;20132;-71
2022/04/24 13:57:32;;;;;;;9.32;2.30;;;18.50;63.30;;;;;;4910346;29;20107;-72
2022/04/24 13:59:58;;;;;;;7.68;2.20;;;18.50;62.80;;;;;;4911117;29;20055;-73
2022/04/24 14:02:24;;;;;;;9.27;2.75;;;18.50;62.10;;;;;;4908290;29;20040;-73
2022/04/24 14:04:49;;;;;;;8.43;2.35;;;18.50;62.30;;;;;;4900961;29;20115;-71
2022/04/24 14:07:15;;;;;;;11.85;2.47;;;18.50;61.40;;;;;;4901118;29;20052;-71
2022/04/24 14:09:42;;;;;;;7.82;2.60;;;18.50;61.90;;;;;;4901404;29;20365;-72
2022/04/24 14:12:10;;;;;;;8.13;2.13;;;18.50;62.00;;;;;;4902867;29;20044;-71
2022/04/24 14:14:35;;;;;;;9.23;2.20;;;18.50;61.50;;;;;;4914590;29;20044;-71
2022/04/24 14:17:01;;;;;;;5.53;1.95;;;18.50;61.30;;;;;;4915998;29;20064;-71
2022/04/24 14:19:27;;;;;;;7.10;2.35;;;18.50;61.30;;;;;;4901782;29;20068;-71
2022/04/24 14:21:55;;;;;;;11.48;2.85;;;18.50;61.00;;;;;;4901646;29;20048;-71
2022/04/24 14:24:24;;;;;;;9.38;2.22;;;18.50;60.50;;;;;;4901902;29;20131;-71
2022/04/24 14:26:53;;;;;;;6.57;2.30;;;18.50;60.10;;;;;;4915665;29;20123;-71
2022/04/24 14:29:20;;;;;;;7.00;2.35;;;18.50;60.00;;;;;;4918135;29;20069;-71
2022/04/24 14:31:48;;;;;;;5.45;1.88;;;18.50;59.80;;;;;;4909266;29;20060;-71
2022/04/24 14:34:19;;;;;;;5.47;1.98;;;18.50;59.60;;;;;;4920318;29;20048;-71
2022/04/24 14:36:44;;;;;;;4.25;1.83;;;18.50;58.80;;;;;;4899963;29;20052;-71
2022/04/24 14:39:10;;;;;;;6.72;1.77;;;18.50;58.30;;;;;;4928205;29;20053;-71
2022/04/24 14:41:39;;;;;;;3.20;1.60;;;18.50;58.40;;;;;;4903515;29;20044;-71
2022/04/24 14:44:05;;;;;;;5.45;1.73;;;18.50;57.90;;;;;;4908043;29;20469;-71
2022/04/24 14:57:32;;;;;;;4.22;1.33;;;18.40;56.90;;;;;;4919485;29;20044;-70
2022/04/24 14:59:58;;;;;;;4.40;2.00;;;18.40;57.00;;;;;;4914334;29;20115;-71
2022/04/24 15:02:26;;;;;;;5.38;2.03;;;18.50;56.90;;;;;;4911897;29;20787;-71
2022/04/24 15:04:52;;;;;;;3.83;1.52;;;18.40;56.50;;;;;;4919709;29;20048;-71
2022/04/24 15:07:18;;;;;;;5.40;1.80;;;18.40;56.70;;;;;;4934329;29;20056;-71
2022/04/24 15:09:45;;;;;;;4.63;1.85;;;18.40;56.40;;;;;;4918968;29;20089;-71
2022/04/24 15:12:11;;;;;;;3.45;1.67;;;18.50;56.30;;;;;;4917836;29;20449;-71
2022/04/24 15:14:37;;;;;;;4.15;1.55;;;18.40;56.20;;;;;;4934136;29;20056;-70
2022/04/24 15:17:04;;;;;;;5.93;2.05;;;18.40;56.20;;;;;;4919133;29;20127;-70
2022/04/24 15:19:30;;;;;;;5.93;2.03;;;18.40;56.20;;;;;;4919202;29;20552;-71
2022/04/24 15:21:56;;;;;;;3.17;1.50;;;18.40;56.20;;;;;;4919159;29;20123;-70
2022/04/24 15:24:23;;;;;;;8.80;1.80;;;18.40;56.20;;;;;;4919536;29;20048;-70
2022/04/24 15:26:49;;;;;;;5.07;2.10;;;18.40;56.10;;;;;;4910548;29;20056;-71
2022/04/24 15:29:21;;;;;;;4.28;1.40;;;18.40;56.20;;;;;;4900730;29;20057;-70
2022/04/24 15:31:47;;;;;;;4.90;1.55;;;18.40;56.10;;;;;;4911024;29;20044;-71
2022/04/24 15:34:14;;;;;;;4.55;1.60;;;18.40;56.00;;;;;;4900091;29;20469;-70
2022/04/24 15:36:40;;;;;;;7.68;1.90;;;18.40;56.50;;;;;;4901374;29;20048;-71
2022/04/24 15:39:06;;;;;;;5.00;1.67;;;18.40;56.60;;;;;;4900386;29;20049;-71
2022/04/24 15:41:34;;;;;;;6.03;1.77;;;18.40;57.10;;;;;;4902883;29;20106;-70
2022/04/24 15:44:01;;;;;;;7.80;1.67;;;18.40;57.30;;;;;;4911123;29;20176;-74
2022/04/24 15:46:29;;;;;;;6.78;1.27;;;18.40;57.50;;;;;;4918755;29;20068;-75
2022/04/24 15:49:05;;;;;;;9.77;2.47;;;18.50;57.70;;;;;;4913982;29;20051;-76
2022/04/24 15:51:30;;;;;;;5.97;1.55;;;18.50;58.10;;;;;;4918871;29;20047;-78
2022/04/24 15:53:56;;;;;;;6.30;1.63;;;18.50;58.50;;;;;;4916499;29;20056;-77
2022/04/24 15:56:22;;;;;;;7.18;1.50;;;18.50;58.70;;;;;;4896864;29;20052;-77
2022/04/24 15:58:48;;;;;;;9.90;1.70;;;18.50;59.30;;;;;;4902405;29;20203;-75
2022/04/24 16:01:14;;;;;;;11.35;1.80;;;18.50;59.50;;;;;;4906539;29;20055;-73
2022/04/24 16:03:40;;;;;;;4.90;1.85;;;18.60;59.50;;;;;;4899897;29;20049;-78
2022/04/24 16:06:06;;;;;;;7.78;1.90;;;18.60;59.40;;;;;;4899692;29;20112;-79
2022/04/24 16:08:31;;;;;;;8.00;1.73;;;18.60;60.00;;;;;;4899887;29;20041;-78
2022/04/24 16:10:57;;;;;;;7.13;1.73;;;18.60;60.20;;;;;;4899812;29;20418;-76
2022/04/24 16:13:23;;;;;;;8.60;1.63;;;18.60;60.10;;;;;;4898548;29;20144;-78
2022/04/24 16:15:49;;;;;;;7.40;1.52;;;18.60;60.00;;;;;;4899786;29;20135;-79
2022/04/24 16:18:19;;;;;;;6.82;1.73;;;18.60;59.90;;;;;;4882924;29;20460;-77
2022/04/24 16:20:46;;;;;;;5.78;1.75;;;18.60;59.90;;;;;;4902237;29;20052;-78
2022/04/24 16:23:12;;;;;;;7.63;1.48;;;18.50;59.80;;;;;;4934279;29;20061;-77
2022/04/24 16:25:38;;;;;;;5.70;1.60;;;18.60;59.90;;;;;;4904004;29;20445;-76
2022/04/24 16:28:05;;;;;;;5.75;1.48;;;18.60;60.10;;;;;;4913078;29;20086;-77
2022/04/24 16:30:34;;;;;;;8.30;1.60;;;18.50;60.10;;;;;;4922829;29;20414;-78
2022/04/24 16:33:00;;;;;;;6.05;1.30;;;18.60;60.30;;;;;;4916260;29;20067;-78
2022/04/24 16:35:26;;;;;;;8.00;1.92;;;18.60;60.40;;;;;;4914749;29;20078;-77
2022/04/24 16:37:55;;;;;;;4.55;1.58;;;18.60;60.50;;;;;;4921538;29;20453;-78
2022/04/24 16:40:22;;;;;;;7.72;1.33;;;18.60;60.80;;;;;;4922525;29;20134;-81
2022/04/24 16:42:48;;;;;;;8.18;1.55;;;18.60;61.20;;;;;;4920819;29;20052;-80
2022/04/24 16:45:15;;;;;;;8.13;1.80;;;18.60;60.60;;;;;;4922452;29;20067;-78
2022/04/24 16:47:42;;;;;;;7.97;1.70;;;18.60;60.60;;;;;;4922756;29;20346;-79
2022/04/24 16:50:09;;;;;;;12.48;1.58;;;18.60;61.20;;;;;;4919205;29;20461;-78
2022/04/24 17:00:49;;;;;;;5.22;1.30;;;18.70;61.50;;;;;;4914084;29;20460;-78
2022/04/24 17:03:15;;;;;;;6.13;1.55;;;18.70;61.50;;;;;;4920369;29;20044;-78
2022/04/24 17:05:41;;;;;;;7.63;1.63;;;18.70;61.50;;;;;;4921173;29;20070;-79
2022/04/24 17:08:08;;;;;;;4.25;1.35;;;18.80;61.60;;;;;;4936353;29;20484;-78
2022/04/24 17:10:34;;;;;;;6.55;1.50;;;18.70;61.50;;;;;;4921192;29;20449;-81
2022/04/24 17:13:01;;;;;;;10.15;1.80;;;18.80;61.60;;;;;;4920744;29;20119;-78
2022/04/24 17:15:28;;;;;;;7.05;1.83;;;18.80;61.50;;;;;;4921458;29;20118;-79
2022/04/24 17:17:55;;;;;;;4.65;1.40;;;18.80;61.50;;;;;;4921475;29;20401;-78
2022/04/24 17:20:20;;;;;;;4.88;1.10;;;18.80;61.50;;;;;;4905235;29;20067;-78
2022/04/24 17:22:46;;;;;;;4.53;1.50;;;18.70;61.40;;;;;;4921519;29;20471;-78
2022/04/24 17:25:12;;;;;;;6.13;1.38;;;18.70;61.30;;;;;;4920715;29;20051;-80
2022/04/24 17:27:38;;;;;;;4.43;1.30;;;18.70;61.20;;;;;;4903056;29;20084;-78
2022/04/24 17:30:05;;;;;;;11.43;2.20;;;18.70;61.10;;;;;;4934538;29;20056;-80
2022/04/24 17:32:32;;;;;;;6.65;1.60;;;18.60;59.90;;;;;;4931921;29;20048;-78
2022/04/24 17:34:58;;;;;;;8.68;1.70;;;18.60;59.40;;;;;;4920311;29;20123;-77
2022/04/24 17:37:25;;;;;;;10.63;1.73;;;18.50;59.70;;;;;;4902388;29;20418;-78
2022/04/24 17:39:51;;;;;;;17.08;1.95;;;18.50;59.70;;;;;;4901881;29;20377;-78
2022/04/24 17:42:18;;;;;;;8.52;2.08;;;18.40;59.60;;;;;;4886148;29;20056;-81
2022/04/24 17:44:43;;;;;;;5.93;1.42;;;18.40;59.50;;;;;;4901485;29;20045;-79
2022/04/24 17:47:09;;;;;;;8.23;2.05;;;18.40;59.80;;;;;;4910885;29;20060;-79
2022/04/24 17:49:35;;;;;;;8.30;1.60;;;18.40;59.80;;;;;;4918292;29;20072;-84
2022/04/24 17:52:05;;;;;;;5.82;2.03;;;18.40;59.60;;;;;;4935567;29;20478;-80
2022/04/24 17:54:31;;;;;;;7.18;1.80;;;18.40;59.80;;;;;;4920123;29;20044;-80
2022/04/24 17:56:56;;;;;;;7.18;2.13;;;18.30;59.60;;;;;;4935381;29;20376;-80
2022/04/24 17:59:22;;;;;;;8.27;1.58;;;18.30;59.40;;;;;;4919078;29;20083;-81
2022/04/24 18:01:51;;;;;;;8.65;1.70;;;18.30;59.60;;;;;;4913107;29;20529;-81
2022/04/24 18:04:17;;;;;;;7.18;1.92;;;18.30;59.50;;;;;;4901333;29;20056;-79
2022/04/24 18:06:44;;;;;;;4.05;1.30;;;18.30;59.70;;;;;;4901455;29;20373;-78
2022/04/24 18:09:09;;;;;;;5.70;1.92;;;18.30;59.50;;;;;;4911114;29;20055;-80
2022/04/24 18:11:35;;;;;;;8.50;1.42;;;18.30;59.60;;;;;;4919936;29;20063;-79
2022/04/24 18:14:01;;;;;;;8.68;2.17;;;18.30;59.40;;;;;;4919306;29;20040;-78
2022/04/24 18:16:27;;;;;;;6.93;2.20;;;18.20;59.30;;;;;;4919599;29;20174;-79
2022/04/24 18:18:56;;;;;;;8.82;1.77;;;18.20;59.50;;;;;;4920063;29;20044;-81
2022/04/24 18:21:26;;;;;;;7.45;1.90;;;18.20;59.60;;;;;;4920316;29;20048;-79
2022/04/24 18:23:55;;;;;;;4.55;1.83;;;18.20;59.70;;;;;;4936158;29;20119;-81
2022/04/24 18:26:24;;;;;;;7.25;2.15;;;18.20;59.60;;;;;;4905146;29;20048;-79
2022/04/24 18:28:51;;;;;;;5.15;1.77;;;18.20;59.60;;;;;;4901522;29;20084;-80
2022/04/24 18:31:18;;;;;;;6.35;1.85;;;18.20;59.90;;;;;;4901864;29;20131;-79
2022/04/24 18:33:44;;;;;;;5.05;1.48;;;18.20;59.80;;;;;;4920533;29;20056;-81
2022/04/24 18:38:54;;;;;;;4.85;1.75;;;18.10;59.60;;;;;;4902785;29;20057;-79
2022/04/24 18:41:19;;;;;;;5.28;1.73;;;18.10;59.70;;;;;;4899611;29;20119;-79
2022/04/24 18:43:46;;;;;;;5.88;2.00;;;18.10;59.60;;;;;;4899968;29;20132;-80
2022/04/24 18:46:11;;;;;;;6.70;1.52;;;18.10;59.60;;;;;;4900896;29;20460;-78
2022/04/24 18:48:37;;;;;;;5.47;1.70;;;18.10;59.60;;;;;;4902430;29;20056;-76
2022/04/24 18:51:05;;;;;;;7.40;1.67;;;18.00;59.70;;;;;;4901300;29;20150;-79
2022/04/24 18:53:31;;;;;;;6.95;1.98;;;18.00;60.10;;;;;;4931174;29;20045;-79
2022/04/24 18:55:58;;;;;;;5.45;1.70;;;18.00;59.90;;;;;;4901069;29;20044;-80
2022/04/24 18:58:23;;;;;;;3.63;1.20;;;18.00;59.70;;;;;;4900525;29;20049;-80
2022/04/24 19:00:49;;;;;;;3.90;1.90;;;18.00;59.60;;;;;;4910368;29;20091;-78
2022/04/24 19:03:15;;;;;;;4.55;1.60;;;18.00;59.80;;;;;;4921012;29;20461;-80
2022/04/24 19:08:25;;;;;;;5.97;2.00;;;18.00;59.50;;;;;;4919634;29;20409;-78
2022/04/24 19:13:38;;;;;;;3.42;1.40;;;17.90;59.50;;;;;;4915178;29;20091;-79
2022/04/24 19:16:06;;;;;;;4.70;1.92;;;17.90;59.40;;;;;;4901301;29;20353;-79
2022/04/24 19:18:33;;;;;;;5.50;1.70;;;17.90;59.50;;;;;;4883745;29;20064;-77
2022/04/24 19:20:59;;;;;;;5.70;1.60;;;17.90;59.50;;;;;;4899911;29;20044;-80
2022/04/24 19:23:24;;;;;;;5.13;1.90;;;17.90;59.30;;;;;;4906749;29;20058;-78
2022/04/24 19:25:50;;;;;;;4.45;1.77;;;17.90;59.10;;;;;;4934278;29;20051;-79
2022/04/24 19:28:16;;;;;;;3.97;1.73;;;17.80;59.10;;;;;;4918029;29;20088;-77
2022/04/24 19:30:47;;;;;;;6.05;2.00;;;17.90;59.10;;;;;;4919391;29;20074;-77
2022/04/24 19:33:13;;;;;;;3.28;1.70;;;17.90;59.10;;;;;;4903481;29;20157;-78
2022/04/24 19:35:38;;;;;;;4.22;2.28;;;17.80;59.10;;;;;;4900725;29;20139;-78
2022/04/24 19:38:04;;;;;;;6.32;2.20;;;17.80;59.20;;;;;;4930874;29;20373;-77
2022/04/24 19:40:30;;;;;;;4.10;2.22;;;17.80;59.10;;;;;;4900868;29;20080;-79
2022/04/24 19:42:56;;;;;;;3.40;1.85;;;17.80;59.00;;;;;;4918436;29;20071;-79
2022/04/24 19:45:22;;;;;;;7.65;2.30;;;17.80;59.10;;;;;;4918996;29;20044;-78
2022/04/24 19:50:32;;;;;;;;;;;17.70;59.10;;;;;;4915928;29;20402;-79
2022/04/24 19:52:57;;;;;;;3.70;1.90;;;17.70;59.10;;;;;;4900286;29;19923;-77
2022/04/24 19:55:25;;;;;;;4.03;1.45;;;17.70;59.10;;;;;;4898831;29;20049;-79
2022/04/24 19:57:52;;;;;;;5.10;1.73;;;17.70;59.10;;;;;;4900266;29;20052;-78
2022/04/24 20:00:20;;;;;;;9.38;2.05;;;17.70;59.20;;;;;;4908847;29;20369;-79
2022/04/24 20:02:45;;;;;;;4.63;1.95;;;17.70;59.30;;;;;;4888482;29;20049;-80
2022/04/24 20:05:11;;;;;;;7.47;2.75;;;17.80;59.30;;;;;;4899690;29;20056;-78
2022/04/24 20:07:37;;;;;;;4.22;1.80;;;17.70;59.30;;;;;;4899851;29;20049;-78
2022/04/24 20:10:07;;;;;;;6.50;2.15;;;17.70;59.20;;;;;;4898891;29;20376;-77
2022/04/24 20:12:32;;;;;;;15.15;2.40;;;17.70;59.40;;;;;;4899751;29;20060;-79
2022/04/24 20:14:58;;;;;;;6.68;2.50;;;17.70;59.40;;;;;;4900214;29;20053;-79
2022/04/24 20:17:24;;;;;;;3.70;1.77;;;17.70;59.40;;;;;;4902070;29;20144;-76
2022/04/24 20:19:50;;;;;;;3.97;1.77;;;17.70;59.30;;;;;;4899834;29;20124;-77
2022/04/24 20:22:16;;;;;;;4.20;2.05;;;17.70;60.00;;;;;;4899725;29;20127;-77
2022/04/24 20:24:42;;;;;;;6.07;2.45;;;17.80;59.70;;;;;;4899354;29;20052;-78
2022/04/24 20:27:09;;;;;;;6.45;2.42;;;17.80;58.70;;;;;;4899462;29;20056;-77
2022/04/24 20:29:35;;;;;;;4.28;2.58;;;17.80;57.90;;;;;;4899079;29;20477;-77
2022/04/24 20:32:03;;;;;;;7.05;2.95;;;17.70;57.10;;;;;;4906362;29;20084;-79
2022/04/24 20:34:29;;;;;;;5.93;2.97;;;17.70;56.60;;;;;;4917661;29;20052;-78
2022/04/24 20:36:56;;;;;;;4.00;2.90;;;17.60;56.30;;;;;;4917922;29;20140;-77
2022/04/24 20:39:26;;;;;;;7.25;2.92;;;17.50;56.10;;;;;;4919354;29;20080;-77
2022/04/24 20:41:52;;;;;;;4.47;2.97;;;17.50;55.90;;;;;;4918829;29;20048;-79
2022/04/24 20:44:18;;;;;;;5.45;3.15;;;17.40;55.60;;;;;;4918704;29;20103;-79
2022/04/24 20:46:44;;;;;;;7.05;3.80;;;17.40;55.50;;;;;;4918314;29;20048;-78
2022/04/24 20:49:10;;;;;;;4.85;2.90;;;17.40;55.50;;;;;;4917569;29;20469;-77
2022/04/24 20:51:36;;;;;;;4.60;3.10;;;17.30;55.40;;;;;;4934192;29;20196;-77
2022/04/24 20:54:05;;;;;;;6.85;3.20;;;17.30;55.40;;;;;;4918545;29;20467;-78
2022/04/24 20:56:34;;;;;;;6.43;3.55;;;17.30;55.40;;;;;;4920983;29;20131;-76
2022/04/24 20:59:01;;;;;;;7.13;3.00;;;17.20;55.40;;;;;;4931261;29;20364;-78
2022/04/24 21:01:28;;;;;;;7.03;3.40;;;17.20;55.40;;;;;;4899392;29;20048;-76
2022/04/24 21:03:55;;;;;;;4.72;3.20;;;17.20;55.30;;;;;;4899518;29;20052;-76
2022/04/24 21:06:21;;;;;;;6.53;3.17;;;17.20;55.30;;;;;;4900900;29;20083;-78
2022/04/24 21:08:46;;;;;;;5.60;2.88;;;17.20;55.30;;;;;;4918248;29;20465;-78
2022/04/24 21:11:12;;;;;;;5.80;3.03;;;17.20;55.20;;;;;;4903171;29;20044;-78
2022/04/24 21:13:38;;;;;;;8.07;3.47;;;17.20;55.10;;;;;;4902919;29;20525;-77
2022/04/24 21:16:04;;;;;;;4.90;3.20;;;17.20;55.10;;;;;;4902045;29;20442;-78
2022/04/24 21:18:30;;;;;;;7.10;3.58;;;17.20;55.00;;;;;;4933315;29;20071;-78
2022/04/24 21:20:55;;;;;;;5.15;3.30;;;17.10;54.90;;;;;;4903063;29;20064;-77
2022/04/24 21:23:23;;;;;;;4.13;3.08;;;17.10;54.80;;;;;;4903003;29;20127;-78
2022/04/24 21:25:49;;;;;;;5.32;3.45;;;17.10;54.80;;;;;;4902725;29;20053;-77
2022/04/24 21:28:15;;;;;;;8.05;2.80;;;17.10;54.80;;;;;;4902584;29;20107;-79
2022/04/24 21:30:40;;;;;;;6.93;3.10;;;17.10;54.80;;;;;;4916765;29;20182;-77
2022/04/24 21:33:06;;;;;;;5.80;3.25;;;17.10;54.80;;;;;;4920505;29;20525;-78
2022/04/24 21:35:32;;;;;;;5.45;3.08;;;17.10;54.70;;;;;;4921425;29;20052;-77
2022/04/24 21:37:57;;;;;;;5.78;3.05;;;17.00;54.60;;;;;;4920244;29;20063;-77
2022/04/24 21:40:23;;;;;;;7.60;3.60;;;17.10;54.70;;;;;;4921354;29;20097;-76
2022/04/24 21:42:49;;;;;;;4.78;2.95;;;17.00;54.60;;;;;;4921337;29;20464;-77
2022/04/24 21:45:15;;;;;;;10.55;4.30;;;17.00;54.70;;;;;;4921169;29;20488;-77
2022/04/24 21:47:40;;;;;;;5.47;3.53;;;17.00;54.60;;;;;;4920198;29;20055;-78
2022/04/24 21:50:07;;;;;;;5.78;3.00;;;17.00;54.60;;;;;;4920169;29;20056;-78
2022/04/24 21:52:34;;;;;;;5.28;2.97;;;17.00;54.60;;;;;;4920186;29;20044;-79
2022/04/24 21:55:00;;;;;;;6.32;3.53;;;17.00;54.60;;;;;;4921109;29;20072;-78
2022/04/24 21:57:26;;;;;;;7.00;2.97;;;17.00;54.50;;;;;;4920257;29;20453;-78
2022/04/24 21:59:51;;;;;;;6.00;3.08;;;17.00;54.50;;;;;;4912404;29;20063;-77
2022/04/24 22:05:01;;;;;;;;;;;16.90;54.40;;;;;;4920540;29;20052;-78
2022/04/24 22:07:27;;;;;;;5.35;2.58;;;16.90;54.70;;;;;;4921141;29;20309;-78
2022/04/24 22:09:52;;;;;;;7.90;3.25;;;16.90;54.40;;;;;;4935868;29;20052;-78
2022/04/24 22:12:18;;;;;;;5.97;3.13;;;16.90;54.30;;;;;;4919476;29;20052;-76
2022/04/24 22:14:44;;;;;;;5.90;2.65;;;16.90;54.20;;;;;;4919999;29;20123;-77
2022/04/24 22:17:09;;;;;;;4.72;2.75;;;16.90;54.10;;;;;;4920401;29;20060;-77
2022/04/24 22:19:35;;;;;;;5.55;3.40;;;16.80;54.20;;;;;;4920736;29;20048;-78
2022/04/24 22:24:45;;;;;;;7.68;3.15;;;16.80;54.00;;;;;;4912861;29;20138;-79
2022/04/24 22:27:12;;;;;;;4.10;2.72;;;16.80;54.00;;;;;;4921028;29;20374;-78
2022/04/24 22:29:39;;;;;;;5.45;3.20;;;16.80;54.00;;;;;;4919892;29;20421;-80
2022/04/24 22:32:05;;;;;;;6.22;3.08;;;16.80;54.00;;;;;;4913040;29;20045;-79
2022/04/24 22:34:32;;;;;;;4.72;2.60;;;16.70;54.10;;;;;;4901738;29;20056;-78
2022/04/24 22:36:58;;;;;;;5.70;3.15;;;16.80;54.20;;;;;;4901636;29;20084;-78
2022/04/24 22:39:24;;;;;;;6.78;3.25;;;16.70;54.20;;;;;;4900396;29;20428;-80
2022/04/24 22:41:51;;;;;;;6.20;3.05;;;16.70;54.40;;;;;;4900810;29;20072;-76
2022/04/24 22:44:17;;;;;;;7.78;3.17;;;16.70;54.50;;;;;;4901379;29;20059;-77
2022/04/24 22:46:43;;;;;;;6.25;3.40;;;16.70;54.60;;;;;;4901429;29;20052;-78
2022/04/24 22:49:09;;;;;;;8.02;3.00;;;16.70;55.40;;;;;;4901368;29;20056;-77